Latest Weather Observations for Moomba Airport

IDS60801

Issued at 2:31 pm CDT Thursday 29 January 2015 (issued every 30 minutes, with the page automatically refreshed every 10 minutes)

About weather observations | Map of weather stations | Latest weather observations for SA | Other Formats
Station Details ID: 017123 Name: MOOMBA AIRPORT Lat: -28.10 Lon: 140.20 Height: 37.8 m
Data from the previous 72 hours. | See also: Recent months at Moomba Airport
Date/Time
CDT
Temp
°C
App
Temp
°C
Dew
Point
Rel
Hum
%
Delta-T
°C
Wind Press
QNH
hPa
Press
MSL
hPa
Rain
since 9 am
mm
Dir
 
Spd
km/h
Gust
km/h
Spd
kts
Gust
kts
29/02:30pm 35.2 32.5 8.9 20 15.0 SE 13 24 7 13 1008.2 1007.9 0.0
29/02:00pm 35.5 32.3 8.3 19 15.4 E 15 26 8 14 1008.7 1008.4 0.0
29/01:30pm 34.3 31.4 9.5 22 14.2 SSE 15 24 8 13 1009.0 1008.7 0.0
29/01:00pm 34.3 32.1 9.5 22 14.2 SE 11 22 6 12 1009.3 1009.0 0.0
29/12:30pm 34.7 32.0 10.5 23 14.1 SE 15 28 8 15 1009.5 1009.2 0.0
29/12:00pm 33.3 30.5 11.2 26 13.0 E 17 26 9 14 1009.8 1009.5 0.0
29/11:30am 33.0 31.2 12.1 28 12.4 E 13 22 7 12 1010.0 1009.7 0.0
29/11:00am 32.6 30.1 12.3 29 12.1 E 17 28 9 15 1010.1 1009.8 0.0
29/10:30am 31.7 28.5 12.0 30 11.6 E 20 30 11 16 1010.1 1009.8 0.0
29/10:00am 30.4 26.8 11.9 32 10.8 ESE 22 28 12 15 1010.1 1009.8 0.0
29/09:30am 28.4 24.6 11.0 34 9.9 SE 22 28 12 15 1010.0 1009.7 0.0
29/09:00am 27.1 23.7 11.2 37 9.1 SE 20 26 11 14 1009.9 1009.6 0.0
29/08:30am 25.6 22.1 11.0 40 8.2 SE 20 26 11 14 1009.9 1009.6 0.0
29/08:00am 24.4 20.7 11.4 44 7.3 SSE 22 32 12 17 1009.6 1009.3 0.0
29/07:30am 22.8 20.0 11.2 48 6.5 SSE 17 22 9 12 1009.3 1009.0 0.0
29/07:00am 22.2 18.8 11.3 50 6.1 SSE 20 26 11 14 1008.8 1008.5 0.0
29/06:30am 22.4 19.0 11.2 49 6.2 S 20 28 11 15 1008.4 1008.1 0.0
29/06:00am 22.5 19.3 11.3 49 6.3 S 19 26 10 14 1008.1 1007.8 0.0
29/05:30am 22.9 19.5 11.3 48 6.5 S 20 24 11 13 1008.0 1007.7 0.0
29/05:00am 22.7 20.2 11.1 48 6.5 S 15 20 8 11 1008.0 1007.7 0.0
29/04:30am 22.5 20.2 10.6 47 6.6 S 13 20 7 11 1007.9 1007.6 0.0
29/04:00am 22.3 20.2 9.8 45 6.8 S 11 17 6 9 1007.8 1007.5 0.0
29/03:30am 22.3 19.6 9.1 43 7.1 SSW 13 17 7 9 1007.8 1007.5 0.0
29/03:00am 22.4 19.5 8.1 40 7.5 S 13 19 7 10 1008.0 1007.7 0.0
29/02:30am 22.6 19.5 7.2 37 8.0 S 13 17 7 9 1008.2 1007.9 0.0
29/02:00am 22.7 19.4 6.5 35 8.3 S 13 17 7 9 1008.3 1008.0 0.0
29/01:30am 23.1 20.2 6.4 34 8.6 S 11 19 6 10 1008.5 1008.2 0.0
29/01:00am 23.7 19.9 6.0 32 9.0 S 15 20 8 11 1008.7 1008.4 0.0
29/12:30am 24.2 19.4 5.5 30 9.5 S 20 28 11 15 1008.7 1008.4 0.0
29/12:00am 24.7 20.5 5.5 29 9.8 S 17 24 9 13 1008.9 1008.6 0.0
 
Date/Time
CDT
Temp
°C
App
Temp
°C
Dew
Point
Rel
Hum
%
Delta-T
°C
Wind Press
QNH
hPa
Press
MSL
hPa
Rain
since 9 am
mm
Dir
 
Spd
km/h
Gust
km/h
Spd
kts
Gust
kts
28/11:30pm 25.5 21.4 6.2 29 10.0 SSW 17 24 9 13 1009.1 1008.8 0.0
28/11:00pm 25.9 21.8 6.0 28 10.3 SSW 17 24 9 13 1009.0 1008.7 0.0
28/10:30pm 26.4 22.0 6.4 28 10.5 SSW 19 24 10 13 1008.9 1008.6 0.0
28/10:00pm 27.0 22.6 6.4 27 10.8 SSW 19 24 10 13 1008.7 1008.4 0.0
28/09:30pm 27.5 23.4 6.3 26 11.2 SSW 17 24 9 13 1008.4 1008.1 0.0
28/09:00pm 28.3 24.2 6.4 25 11.6 S 17 24 9 13 1008.2 1007.9 0.0
28/08:30pm 29.4 23.6 6.1 23 12.3 S 26 33 14 18 1008.0 1007.7 0.0
28/08:00pm 30.1 24.6 6.1 22 12.7 S 24 35 13 19 1007.7 1007.4 0.0
28/07:30pm 30.8 24.6 6.0 21 13.2 S 28 41 15 22 1007.3 1007.0 0.0
28/07:19pm 31.0 24.6 5.4 20 13.5 S 28 46 15 25 1007.2 1006.9 0.0
28/07:00pm 31.3 24.1 5.7 20 13.6 SSE 33 46 18 25 1007.0 1006.7 0.0
28/06:30pm 31.4 24.0 5.0 19 13.9 SSE 33 43 18 23 1006.8 1006.5 0.0
28/06:12pm 31.5 24.3 5.1 19 13.9 S 32 50 17 27 1006.6 1006.3 0.0
28/06:00pm 31.5 23.7 5.1 19 13.9 S 35 50 19 27 1006.5 1006.2 0.0
28/05:30pm 31.5 23.7 5.1 19 13.9 S 35 48 19 26 1006.4 1006.1 0.0
28/05:02pm 31.6 24.2 5.2 19 13.9 S 33 52 18 28 1006.4 1006.1 0.0
28/05:00pm 31.6 24.2 5.2 19 13.9 SSE 33 46 18 25 1006.5 1006.2 0.0
28/04:49pm 31.9 24.8 5.4 19 14.0 S 32 50 17 27 1006.6 1006.3 0.0
28/04:30pm 31.5 23.9 5.8 20 13.7 S 35 50 19 27 1006.6 1006.3 0.0
28/04:10pm 31.7 24.7 6.0 20 13.7 S 32 50 17 27 1006.6 1006.3 0.0
28/04:00pm 31.4 23.6 5.0 19 13.9 S 35 46 19 25 1006.8 1006.5 0.0
28/03:30pm 31.2 24.5 5.6 20 13.6 S 30 48 16 26 1007.1 1006.8 0.0
28/03:00pm 31.0 24.0 6.1 21 13.3 S 32 44 17 24 1007.2 1006.9 0.0
28/02:30pm 30.6 24.1 6.5 22 12.9 S 30 44 16 24 1007.7 1007.4 0.0
28/02:00pm 30.3 24.3 6.9 23 12.6 S 28 48 15 26 1008.1 1007.8 0.0
28/01:47pm 30.0 23.4 6.0 22 12.7 S 30 52 16 28 1008.2 1007.9 0.0
28/01:30pm 29.4 22.3 5.5 22 12.5 S 32 43 17 23 1008.4 1008.1 0.0
28/01:00pm 28.7 22.1 4.2 21 12.5 SSE 28 43 15 23 1008.8 1008.5 0.0
28/12:30pm 28.2 21.1 5.7 24 11.8 S 32 44 17 24 1009.3 1009.0 0.0
28/12:00pm 28.0 21.4 6.2 25 11.5 S 30 41 16 22 1009.5 1009.2 0.0
28/11:30am 27.1 20.5 6.0 26 11.0 S 30 39 16 21 1009.9 1009.6 0.0
28/11:00am 26.5 20.2 5.5 26 10.8 SSE 28 35 15 19 1010.1 1009.8 0.0
28/10:30am 25.3 18.5 5.0 27 10.3 SSE 30 39 16 21 1010.3 1010.0 0.0
28/10:00am 24.3 17.8 4.6 28 9.8 SSE 28 37 15 20 1010.5 1010.2 0.0
28/09:30am 23.1 15.2 4.1 29 9.3 SSE 35 44 19 24 1010.3 1010.0 0.0
28/09:00am 22.3 15.4 4.4 31 8.8 S 30 43 16 23 1010.2 1009.9 0.0
28/08:30am 21.5 14.1 4.1 32 8.5 S 32 44 17 24 1010.0 1009.7 0.0
28/08:00am 20.0 13.8 4.1 35 7.6 S 26 35 14 19 1009.7 1009.4 0.0
28/07:30am 18.4 14.3 4.2 39 6.8 S 15 24 8 13 1009.2 1008.9 0.0
28/07:00am 17.4 13.7 4.4 42 6.2 S 13 19 7 10 1008.9 1008.6 0.0
28/06:30am 16.8 13.1 4.2 43 5.9 S 13 19 7 10 1008.6 1008.3 0.0
28/06:00am 17.0 12.8 4.0 42 6.1 S 15 19 8 10 1008.5 1008.2 0.0
28/05:30am 17.3 13.5 3.9 41 6.3 S 13 19 7 10 1008.5 1008.2 0.0
28/05:00am 17.8 14.0 4.0 40 6.5 S 13 19 7 10 1008.5 1008.2 0.0
28/04:30am 18.4 14.6 3.8 38 6.9 S 13 17 7 9 1008.5 1008.2 0.0
28/04:00am 18.3 15.0 4.5 40 6.6 S 11 17 6 9 1008.6 1008.3 0.0
28/03:30am 19.1 14.9 3.7 36 7.3 S 15 19 8 10 1008.3 1008.0 0.0
28/03:00am 19.7 15.9 3.8 35 7.6 S 13 17 7 9 1008.6 1008.3 0.0
28/02:30am 20.2 16.4 3.9 34 7.8 S 13 19 7 10 1008.8 1008.5 0.0
28/02:00am 20.8 16.2 3.5 32 8.3 S 17 20 9 11 1008.8 1008.5 0.0
28/01:30am 21.3 17.4 3.5 31 8.5 S 13 17 7 9 1009.2 1008.9 0.0
28/01:00am 21.9 16.9 3.6 30 8.8 S 19 22 10 12 1009.3 1009.0 0.0
28/12:30am 21.5 17.7 3.7 31 8.6 SSW 13 19 7 10 1009.5 1009.2 0.0
28/12:00am 21.9 17.9 3.1 29 9.0 S 13 19 7 10 1009.6 1009.3 0.0
 
Date/Time
CDT
Temp
°C
App
Temp
°C
Dew
Point
Rel
Hum
%
Delta-T
°C
Wind Press
QNH
hPa
Press
MSL
hPa
Rain
since 9 am
mm
Dir
 
Spd
km/h
Gust
km/h
Spd
kts
Gust
kts
27/11:30pm 22.4 18.4 3.0 28 9.3 S 13 19 7 10 1009.6 1009.3 0.0
27/11:00pm 22.9 19.0 3.4 28 9.4 SSW 13 17 7 9 1009.8 1009.5 0.0
27/10:30pm 23.6 19.7 3.5 27 9.8 SSW 13 17 7 9 1009.7 1009.4 0.0
27/10:00pm 24.2 20.1 2.4 24 10.4 SSW 13 19 7 10 1009.6 1009.3 0.0
27/09:30pm 25.4 21.0 2.8 23 11.0 SSW 15 22 8 12 1009.5 1009.2 0.0
27/09:00pm 25.9 21.1 2.6 22 11.4 S 17 24 9 13 1009.3 1009.0 0.0
27/08:30pm 26.6 21.4 2.5 21 11.8 S 19 24 10 13 1009.0 1008.7 0.0
27/08:00pm 27.5 21.2 1.8 19 12.5 S 24 35 13 19 1008.6 1008.3 0.0
27/07:30pm 28.3 20.9 1.7 18 13.0 S 30 39 16 21 1008.2 1007.9 0.0
27/07:00pm 29.0 22.3 1.5 17 13.4 S 26 35 14 19 1007.9 1007.6 0.0
27/06:30pm 29.2 22.2 1.7 17 13.5 S 28 39 15 21 1007.5 1007.2 0.0
27/06:00pm 29.4 21.5 1.0 16 13.8 S 32 39 17 21 1007.6 1007.3 0.0
27/05:30pm 29.5 22.7 1.1 16 13.8 S 26 39 14 21 1007.6 1007.3 0.0
27/05:00pm 29.7 22.6 1.2 16 13.9 S 28 43 15 23 1007.8 1007.5 0.0
27/04:45pm 29.5 22.0 1.1 16 13.8 S 30 50 16 27 1007.6 1007.3 0.0
27/04:30pm 29.7 22.1 0.3 15 14.1 S 30 44 16 24 1007.9 1007.6 0.0
27/04:00pm 29.6 22.1 1.1 16 13.8 S 30 43 16 23 1008.2 1007.9 0.0
27/03:30pm 29.1 21.5 0.7 16 13.7 S 30 44 16 24 1008.4 1008.1 0.0
27/03:00pm 29.2 22.0 0.8 16 13.7 S 28 41 15 22 1008.7 1008.4 0.0
27/02:36pm 28.8 20.8 0.5 16 13.5 S 32 50 17 27 1009.0 1008.7 0.0
27/02:30pm 28.8 21.4 2.1 18 13.2 S 30 41 16 22 1009.2 1008.9 0.0
27/02:00pm 29.2 22.3 2.5 18 13.3 S 28 39 15 21 1009.5 1009.2 0.0
27/01:53pm 29.5 22.2 2.7 18 13.4 S 30 48 16 26 1009.7 1009.4 0.0
27/01:30pm 28.9 21.7 3.0 19 13.0 S 30 43 16 23 1009.9 1009.6 0.0
27/01:00pm 28.3 21.3 3.9 21 12.3 SSE 30 44 16 24 1010.4 1010.1 0.0
27/12:33pm 27.4 20.6 3.2 21 12.0 S 28 46 15 25 1010.9 1010.6 0.0
27/12:30pm 27.9 20.8 3.6 21 12.2 S 30 46 16 25 1010.9 1010.6 0.0
27/12:00pm 27.5 20.5 3.9 22 11.9 SSE 30 41 16 22 1011.1 1010.8 0.0
27/11:30am 26.8 20.0 3.3 22 11.7 SSE 28 41 15 22 1011.2 1010.9 0.0
27/11:00am 26.8 20.2 4.0 23 11.4 SSE 28 39 15 21 1011.4 1011.1 0.0
27/10:30am 25.8 19.5 3.7 24 11.0 SSE 26 35 14 19 1011.6 1011.3 0.0
27/10:00am 25.2 18.5 3.8 25 10.6 SSE 28 39 15 21 1011.6 1011.3 0.0
27/09:30am 24.4 18.1 3.7 26 10.2 SE 26 35 14 19 1011.5 1011.2 0.0
27/09:00am 23.4 17.2 4.4 29 9.4 SE 26 35 14 19 1011.5 1011.2 0.0
27/08:30am 21.7 15.5 4.3 32 8.5 SSE 26 41 14 22 1011.5 1011.2 0.0
27/08:00am 20.7 14.9 4.3 34 7.9 SSE 24 32 13 17 1011.2 1010.9 0.0
27/07:30am 19.6 14.6 4.5 37 7.3 S 20 30 11 16 1011.1 1010.8 0.0
27/07:00am 18.8 13.8 4.6 39 6.8 S 20 26 11 14 1010.8 1010.5 0.0
27/06:30am 18.4 13.6 4.9 41 6.5 SSE 19 30 10 16 1010.1 1009.8 0.0
27/06:00am 18.2 13.9 5.4 43 6.2 S 17 20 9 11 1010.0 1009.7 0.0
27/05:30am 18.8 14.5 5.3 41 6.6 S 17 20 9 11 1009.8 1009.5 0.0
27/05:00am 18.3 15.0 6.2 45 6.0 S 13 17 7 9 1009.7 1009.4 0.0
27/04:30am 18.6 15.2 6.1 44 6.2 S 13 19 7 10 1009.7 1009.4 0.0
27/04:00am 18.9 15.9 6.1 43 6.3 S 11 17 6 9 1009.6 1009.3 0.0
27/03:30am 19.4 16.4 6.2 42 6.6 S 11 15 6 8 1009.6 1009.3 0.0
27/03:00am 19.8 16.8 5.8 40 6.9 S 11 17 6 9 1009.8 1009.5 0.0
27/02:30am 20.2 17.2 5.8 39 7.2 S 11 15 6 8 1009.9 1009.6 0.0
27/02:00am 20.5 17.5 6.1 39 7.2 S 11 13 6 7 1010.3 1010.0 0.0
27/01:30am 20.6 18.0 6.2 39 7.2 S 9 13 5 7 1010.7 1010.4 0.0
27/01:00am 21.8 18.4 5.7 35 8.1 S 13 17 7 9 1010.7 1010.4 0.0
27/12:30am 22.2 18.4 5.6 34 8.3 S 15 20 8 11 1010.8 1010.5 0.0
27/12:00am 23.0 19.1 5.4 32 8.8 S 15 19 8 10 1011.0 1010.7 0.0
 
Date/Time
CDT
Temp
°C
App
Temp
°C
Dew
Point
Rel
Hum
%
Delta-T
°C
Wind Press
QNH
hPa
Press
MSL
hPa
Rain
since 9 am
mm
Dir
 
Spd
km/h
Gust
km/h
Spd
kts
Gust
kts
26/11:30pm 23.6 19.7 5.5 31 9.2 S 15 19 8 10 1011.2 1010.9 0.0
26/11:00pm 24.3 20.5 5.6 30 9.5 S 15 20 8 11 1011.2 1010.9 0.0
26/10:30pm 24.9 21.1 5.7 29 9.8 S 15 19 8 10 1011.5 1011.2 0.0
26/10:00pm 25.4 21.2 5.6 28 10.1 S 17 22 9 12 1011.3 1011.0 0.0
26/09:30pm 26.1 21.3 5.7 27 10.5 S 20 24 11 13 1011.2 1010.9 0.0
26/09:00pm 26.5 21.3 5.5 26 10.8 S 22 28 12 15 1011.0 1010.7 0.0
26/08:30pm 27.2 21.9 4.9 24 11.4 S 22 33 12 18 1010.6 1010.3 0.0
26/08:00pm 27.9 22.2 4.9 23 11.8 S 24 35 13 19 1010.3 1010.0 0.0
26/07:30pm 29.0 22.5 4.5 21 12.6 S 28 37 15 20 1009.8 1009.5 0.0
26/07:00pm 29.7 23.9 4.4 20 13.0 S 24 35 13 19 1009.3 1009.0 0.0
26/06:30pm 30.0 23.7 3.9 19 13.4 S 26 39 14 21 1009.3 1009.0 0.0
26/06:00pm 30.6 24.8 4.4 19 13.6 S 24 37 13 20 1009.1 1008.8 0.0
26/05:30pm 30.8 25.0 4.5 19 13.7 S 24 30 13 16 1009.0 1008.7 0.0
26/05:00pm 30.8 24.3 4.5 19 13.6 SSE 28 44 15 24 1009.1 1008.8 0.0
26/04:30pm 31.2 25.9 4.9 19 13.8 S 22 33 12 18 1009.2 1008.9 0.0
26/04:00pm 31.1 25.0 4.8 19 13.7 SSE 26 37 14 20 1009.3 1009.0 0.0
26/03:30pm 30.8 25.4 4.5 19 13.7 S 22 46 12 25 1009.5 1009.2 0.0
26/03:00pm 31.2 26.3 4.9 19 13.8 S 20 32 11 17 1009.5 1009.2 0.0

Other Formats:

Comma delimited format used in spreadsheet applications
http://www.bom.gov.au/fwo/IDS60801/IDS60801.95481.axf

JavaScript Object Notation format (JSON) in row-major order
http://www.bom.gov.au/fwo/IDS60801/IDS60801.95481.json